Data for 05/23/2007

Time Sea-Level Adjusted Pressure Absolute Pressure Temperature Relative Humidity Dew Point   
(mb) (inHg) (mb) (inHg) (C) (F) (%) (C) (F)
00:05 1020 30.12 849 25.07 2.8 37.1 92 1.7 35
00:10 1020 30.12 849 25.07 2.6 36.7 93 1.6 34.9
00:15 1020 30.12 849 25.07 2.6 36.7 93 1.6 34.8
00:20 1020 30.12 849 25.07 2.7 36.9 92 1.6 34.9
00:25 1020 30.12 849 25.07 2.8 37 91 1.5 34.7
00:30 1020 30.12 849 25.07 2.8 37.1 92 1.6 34.8
00:35 1020 30.12 849 25.07 2.9 37.3 91 1.6 34.8
00:40 1020 30.12 849 25.07 3.1 37.5 90 1.5 34.7
00:45 1020 30.12 849 25.07 3.1 37.7 88 1.4 34.6
00:50 1020 30.12 849 25.07 3.2 37.7 88 1.3 34.4
00:55 1020 30.12 849 25.07 3.1 37.5 88 1.3 34.3
01:00 1020 30.12 849 25.07 3 37.4 88 1.2 34.2
01:05 1020 30.12 849 25.07 3 37.4 89 1.4 34.5
01:10 1020 30.12 849 25.07 2.9 37.3 90 1.5 34.6
01:15 1020 30.12 849 25.07 2.8 37.1 90 1.4 34.4
01:20 1020 30.12 849 25.07 2.7 36.9 90 1.3 34.3
01:25 1020 30.12 849 25.07 2.6 36.7 91 1.3 34.3
01:30 1020 30.12 849 25.07 2.3 36.1 92 1.2 34.1
01:35 1020 30.12 849 25.07 2.1 35.8 93 1 33.9
01:40 1020 30.12 849 25.07 2.1 35.7 92 0.9 33.7
01:45 1020 30.12 849 25.07 2.2 35.9 92 1 33.8
01:50 1020 30.12 849 25.07 2.3 36.1 92 1 33.9
01:55 1020 30.12 849 25.07 2.4 36.2 91 1 33.7
02:00 1020 30.12 849 25.07 2.4 36.4 90 1 33.8
02:05 1020 30.12 849 25.07 2.5 36.5 90 1 33.9
02:10 1020 30.12 849 25.07 2.6 36.7 89 1.1 33.9
02:15 1020 30.12 849 25.07 2.8 37 89 1.1 34
02:20 1020 30.12 849 25.07 2.9 37.3 89 1.3 34.3
02:25 1020 30.12 849 25.07 3 37.5 87 1.1 34
02:30 1020 30.12 849 25.07 3 37.4 87 1 33.8
02:35 1020 30.12 849 25.07 3 37.5 87 1.1 34
02:40 1020 30.12 849 25.07 3.1 37.6 87 1.2 34.2
02:45 1020 30.12 849 25.07 3.1 37.7 88 1.3 34.4
02:50 1020 30.12 849 25.07 3.1 37.6 87 1.2 34.2
02:55 1020 30.12 849 25.07 3 37.5 87 1.1 34
03:00 1020 30.12 849 25.07 2.9 37.3 87 0.9 33.7
03:05 1020 30.12 849 25.07 2.9 37.2 87 0.9 33.6
03:10 1020 30.12 849 25.07 2.7 36.9 87 0.7 33.3
03:15 1020 30.12 849 25.07 2.7 36.8 87 0.7 33.2
03:20 1020 30.12 849 25.07 2.7 36.8 86 0.6 33.1
03:25 1020 30.12 850 25.1 2.7 36.8 86 0.5 32.9
03:30 1020 30.12 850 25.1 2.5 36.6 87 0.5 32.9
03:35 1020 30.12 850 25.1 2.4 36.3 87 0.5 32.9
03:40 1020 30.12 850 25.1 2.4 36.3 88 0.5 32.9
03:45 1020 30.12 850 25.1 2.5 36.4 86 0.4 32.7
03:50 1021 30.15 850 25.1 2.6 36.7 86 0.6 33
03:55 1021 30.15 850 25.1 2.8 37 85 0.6 33
04:00 1021 30.15 850 25.1 2.9 37.3 85 0.7 33.3
04:05 1021 30.15 850 25.1 3 37.4 85 0.7 33.2
04:10 1021 30.15 850 25.1 3 37.5 85 0.8 33.4
04:15 1021 30.15 850 25.1 3 37.4 85 0.7 33.3
04:20 1021 30.15 850 25.1 2.9 37.3 85 0.6 33.1
04:25 1021 30.15 850 25.1 3.1 37.6 83 0.6 33
04:30 1021 30.15 850 25.1 3.2 37.7 84 0.8 33.4
04:35 1021 30.15 850 25.1 3.2 37.8 84 0.8 33.4
04:40 1021 30.15 850 25.1 3.2 37.8 84 0.7 33.3
04:45 1021 30.15 850 25.1 3.3 37.9 84 0.8 33.4
04:50 1021 30.15 850 25.1 3.3 38 83 0.6 33.2
04:55 1021 30.15 850 25.1 3.4 38.1 83 0.8 33.4
05:00 1021 30.15 850 25.1 3.3 37.9 84 0.8 33.4
05:05 1021 30.15 850 25.1 3.3 37.9 83 0.7 33.2
05:10 1021 30.15 850 25.1 3.3 37.9 83 0.6 33.2
05:15 1021 30.15 850 25.1 3.1 37.6 84 0.6 33.2
05:20 1021 30.15 850 25.1 3.1 37.6 84 0.6 33.2
05:25 1021 30.15 850 25.1 3 37.4 85 0.7 33.2
05:30 1021 30.15 850 25.1 3 37.4 86 0.9 33.6
05:35 1021 30.15 850 25.1 2.9 37.2 88 1.1 34
05:40 1021 30.15 850 25.1 2.7 36.8 89 1.1 33.9
05:45 1021 30.15 850 25.1 2.6 36.6 90 1 33.8
05:50 1021 30.15 850 25.1 2.7 36.8 89 1 33.8
05:55 1021 30.15 850 25.1 2.8 37 87 0.7 33.3
06:00 1021 30.15 850 25.1 2.9 37.1 86 0.8 33.4
06:05 1021 30.15 850 25.1 2.9 37.2 85 0.7 33.2
06:10 1021 30.15 850 25.1 3 37.3 87 0.9 33.7
06:15 1021 30.15 850 25.1 3 37.3 87 1.1 33.9
06:20 1021 30.15 850 25.1 2.9 37.3 88 1.1 34
06:25 1021 30.15 851 25.13 2.8 37.1 87 0.9 33.7
06:30 1021 30.15 851 25.13 2.8 37.1 88 1.1 34
06:35 1021 30.15 851 25.13 2.7 36.9 89 1 33.8
06:40 1021 30.15 851 25.13 2.7 36.9 89 1.1 34
06:45 1021 30.15 851 25.13 2.7 36.8 89 1.1 34
06:50 1021 30.15 851 25.13 2.7 36.9 89 1.1 34
06:55 1022 30.18 851 25.13 2.8 37 89 1.2 34.1
07:00 1022 30.18 851 25.13 2.9 37.2 89 1.3 34.3
07:05 1022 30.18 851 25.13 3 37.4 90 1.5 34.7
07:10 1022 30.18 851 25.13 2.9 37.2 88 1.2 34.1
07:15 1022 30.18 851 25.13 3 37.5 88 1.2 34.2
07:20 1022 30.18 851 25.13 3 37.4 89 1.4 34.5
07:25 1022 30.18 851 25.13 3 37.4 90 1.5 34.7
07:30 1022 30.18 851 25.13 2.9 37.2 90 1.4 34.5
07:35 1022 30.18 851 25.13 3 37.3 89 1.3 34.4
07:40 1022 30.18 851 25.13 3.1 37.7 88 1.4 34.5
07:45 1022 30.18 851 25.13 3.8 38.8 85 1.5 34.8
07:50 1022 30.18 851 25.13 4.2 39.5 84 1.7 35.1
07:55 1022 30.18 851 25.13 4.4 39.9 81 1.5 34.6
08:00 1022 30.18 851 25.13 4.4 39.9 82 1.6 34.9
08:05 1022 30.18 851 25.13 4.4 39.9 79 1.1 34
08:10 1022 30.18 851 25.13 4.4 40 81 1.4 34.5
08:15 1022 30.18 851 25.13 4.8 40.6 79 1.4 34.5
08:20 1022 30.18 851 25.13 5 41.1 76 1.1 34
08:25 1022 30.18 851 25.13 5 40.9 76 1 33.8
08:30 1022 30.18 851 25.13 5 41 75 1 33.8
08:35 1022 30.18 851 25.13 5 41.1 71 0.2 32.4
08:40 1022 30.18 851 25.13 5.5 41.8 73 0.9 33.7
08:45 1022 30.18 851 25.13 6 42.8 71 1.1 34
08:50 1022 30.18 851 25.13 6 42.9 70 0.9 33.6
08:55 1022 30.18 851 25.13 6.5 43.7 69 1.2 34.2
09:00 1022 30.18 851 25.13 6.3 43.4 69 1 33.9
09:05 1022 30.18 851 25.13 6.8 44.2 68 1.3 34.4
09:10 1022 30.18 851 25.13 7.8 46.1 62 1.1 34
09:15 1022 30.18 851 25.13 7.4 45.3 64 1.1 34
09:20 1022 30.18 851 25.13 7 44.7 65 0.9 33.6
09:25 1022 30.18 851 25.13 6.7 44.1 64 0.4 32.8
09:30 1022 30.18 851 25.13 7.4 45.3 59 -0.1 31.7
09:35 1022 30.18 851 25.13 7.4 45.2 61 0.4 32.7
09:40 1022 30.18 851 25.13 7.8 46.1 57 -0.1 31.8
09:45 1022 30.18 851 25.13 8.1 46.6 59 0.7 33.2
09:50 1022 30.18 851 25.13 8.3 46.9 57 0.2 32.3
09:55 1022 30.18 851 25.13 8.7 47.7 55 0.2 32.3
10:00 1022 30.18 851 25.13 9 48.2 55 0.6 33
10:05 1022 30.18 851 25.13 9.2 48.5 52 -0.2 31.6
10:10 1022 30.18 851 25.13 9.1 48.4 54 0.4 32.7
10:15 1022 30.18 851 25.13 9.4 49 50 -0.4 31.3
10:20 1022 30.18 851 25.13 9 48.2 53 0 32.1
10:25 1022 30.18 851 25.13 9.1 48.3 50 -0.8 30.5
10:30 1022 30.18 851 25.13 8.8 47.8 53 -0.3 31.4
10:35 1022 30.18 851 25.13 9.1 48.4 48 -1.3 29.6
10:40 1022 30.18 851 25.13 9.1 48.4 51 -0.3 31.4
10:45 1022 30.18 851 25.13 7.9 46.2 55 -0.6 30.9
10:50 1022 30.18 851 25.13 7.4 45.3 57 -0.5 31.2
10:55 1022 30.18 851 25.13 6.9 44.4 58 -0.7 30.8
11:00 1022 30.18 851 25.13 8.1 46.5 52 -1.2 29.9
11:05 1022 30.18 851 25.13 8.1 46.6 54 -0.6 30.9
11:10 1022 30.18 851 25.13 9 48.1 49 -1.1 30.1
11:15 1022 30.18 851 25.13 9 48.1 48 -1.3 29.6
11:20 1022 30.18 851 25.13 9.4 48.9 49 -0.8 30.6
11:25 1022 30.18 851 25.13 10 50 46 -1.1 30
11:30 1022 30.18 851 25.13 10.8 51.4 42 -1.6 29.1
11:35 1022 30.18 851 25.13 11 51.8 42 -1.5 29.3
11:40 1022 30.18 851 25.13 9.9 49.9 44 -1.7 28.9
11:45 1022 30.18 851 25.13 9.5 49.1 46 -1.5 29.3
11:50 1022 30.18 851 25.13 9 48.2 48 -1.5 29.3
11:55 1022 30.18 851 25.13 8.7 47.7 54 0.1 32.1
12:00 1022 30.18 851 25.13 7.1 44.8 73 2.5 36.6
12:05 1023 30.21 852 25.16 4.8 40.7 82 2 35.5
12:10 1023 30.21 852 25.16 3 37.5 87 1 33.8
12:15 1023 30.21 852 25.16 2.2 35.9 91 0.8 33.5
12:20 1023 30.21 852 25.16 2.2 35.9 91 0.9 33.6
12:25 1023 30.21 852 25.16 2.5 36.5 92 1.3 34.4
12:30 1023 30.21 852 25.16 3.1 37.6 91 1.8 35.2
12:35 1023 30.21 852 25.16 4.1 39.4 87 2.2 35.9
12:40 1023 30.21 852 25.16 5.2 41.3 80 2 35.6
12:45 1023 30.21 852 25.16 5.1 41.2 84 2.6 36.6
12:50 1023 30.21 852 25.16 5.2 41.4 82 2.4 36.3
12:55 1023 30.21 852 25.16 5.5 41.8 80 2.2 36
13:00 1023 30.21 852 25.16 5.7 42.2 78 2.2 36
13:05 1023 30.21 852 25.16 6.2 43.1 76 2.3 36.2
13:10 1023 30.21 852 25.16 6.3 43.3 77 2.6 36.6
13:15 1023 30.21 852 25.16 6.7 44.1 76 2.8 37.1
13:20 1023 30.21 852 25.16 6.7 44 76 2.7 36.9
13:25 1023 30.21 852 25.16 6.7 44 71 1.8 35.2
13:30 1023 30.21 852 25.16 7.4 45.3 72 2.7 36.8
13:35 1022 30.18 852 25.16 7.7 45.8 65 1.5 34.8
13:40 1023 30.21 852 25.16 7.6 45.7 64 1.3 34.3
13:45 1022 30.18 852 25.16 7.7 45.8 63 1 33.9
13:50 1022 30.18 852 25.16 8.2 46.7 59 0.7 33.2
13:55 1022 30.18 852 25.16 8.9 48 56 0.7 33.3
14:00 1022 30.18 852 25.16 8.8 47.9 54 0.1 32.1
14:05 1022 30.18 852 25.16 8.6 47.4 55 0.2 32.3
14:10 1022 30.18 851 25.13 8.7 47.7 54 -0 31.9
14:15 1022 30.18 851 25.13 8.6 47.4 56 0.3 32.5
14:20 1022 30.18 851 25.13 8.8 47.8 51 -0.8 30.6
14:25 1022 30.18 851 25.13 8.9 47.9 51 -0.8 30.5
14:30 1022 30.18 851 25.13 8.6 47.4 51 -0.9 30.4
14:35 1022 30.18 851 25.13 9 48.1 49 -1.2 29.8
14:40 1022 30.18 851 25.13 9.5 49.1 43 -2.5 27.4
14:45 1022 30.18 851 25.13 9.5 49.1 47 -1.2 29.9
14:50 1022 30.18 851 25.13 9.5 49 47 -1.2 29.8
14:55 1022 30.18 851 25.13 10.2 50.4 43 -1.7 29
15:00 1022 30.18 851 25.13 10.8 51.4 43 -1.3 29.7
15:05 1022 30.18 851 25.13 11.6 52.9 41 -1.3 29.7
15:10 1022 30.18 851 25.13 10.1 50.2 47 -0.8 30.6
15:15 1022 30.18 851 25.13 9.6 49.3 46 -1.6 29.2
15:20 1022 30.18 851 25.13 9.8 49.6 42 -2.4 27.6
15:25 1022 30.18 851 25.13 10 50 43 -1.9 28.6
15:30 1022 30.18 851 25.13 11 51.7 39 -2.6 27.4
15:35 1022 30.18 851 25.13 11.5 52.7 36 -3 26.7
15:40 1022 30.18 851 25.13 11.1 51.9 39 -2.3 27.9
15:45 1022 30.18 851 25.13 11.8 53.2 36 -2.7 27.1
15:50 1022 30.18 851 25.13 12 53.6 35 -3 26.6
15:55 1022 30.18 851 25.13 11.6 53 34 -3.5 25.6
16:00 1021 30.15 851 25.13 11.8 53.3 36 -2.7 27.2
16:05 1021 30.15 851 25.13 11.1 51.9 38 -2.5 27.4
16:10 1021 30.15 851 25.13 11.7 53.1 37 -2.5 27.4
16:15 1021 30.15 851 25.13 11.5 52.8 38 -2.4 27.7
16:20 1021 30.15 851 25.13 11.7 53 38 -2.2 28
16:25 1021 30.15 851 25.13 11.6 52.9 40 -1.6 29
16:30 1021 30.15 851 25.13 11.8 53.2 37 -2.3 27.9
16:35 1021 30.15 851 25.13 11.4 52.6 39 -1.9 28.6
16:40 1021 30.15 851 25.13 11.2 52.1 38 -2.4 27.6
16:45 1021 30.15 851 25.13 10.8 51.4 40 -2.3 27.8
16:50 1021 30.15 851 25.13 10.4 50.6 44 -1.2 29.9
16:55 1021 30.15 851 25.13 10.2 50.3 44 -1.4 29.5
17:00 1021 30.15 851 25.13 10.3 50.5 43 -1.7 29
17:05 1021 30.15 851 25.13 10.1 50.3 41 -2.5 27.6
17:10 1021 30.15 851 25.13 9.9 49.9 41 -2.6 27.3
17:15 1021 30.15 851 25.13 10.1 50.1 41 -2.5 27.5
17:20 1021 30.15 850 25.1 10.9 51.6 39 -2.5 27.6
17:25 1021 30.15 850 25.1 11.7 53 37 -2.4 27.7
17:30 1021 30.15 850 25.1 11.8 53.3 37 -2.3 27.8
17:35 1021 30.15 850 25.1 11 51.8 40 -2 28.5
17:40 1021 30.15 850 25.1 10.6 51 40 -2.3 27.8
17:45 1021 30.15 850 25.1 11.3 52.4 37 -3 26.7
17:50 1021 30.15 850 25.1 11.4 52.5 36 -3 26.6
17:55 1021 30.15 850 25.1 11.6 52.8 34 -3.9 24.9
18:00 1021 30.15 850 25.1 11.8 53.2 33 -4.1 24.7
18:05 1021 30.15 850 25.1 12 53.7 33 -3.8 25.2
18:10 1021 30.15 850 25.1 11.8 53.3 32 -4.4 24.1
18:15 1021 30.15 850 25.1 12 53.5 33 -3.9 24.9
18:20 1021 30.15 850 25.1 12.1 53.9 31 -4.4 24.1
18:25 1021 30.15 850 25.1 12.3 54.2 31 -4.4 24.1
18:30 1021 30.15 850 25.1 12.2 53.9 31 -4.4 24
18:35 1021 30.15 850 25.1 11.1 51.9 34 -4.3 24.3
18:40 1021 30.15 850 25.1 11.3 52.3 33 -4.4 24.1
18:45 1021 30.15 850 25.1 11.4 52.5 33 -4.2 24.4
18:50 1021 30.15 850 25.1 10.6 51.1 34 -4.7 23.6
18:55 1021 30.15 850 25.1 10.5 50.8 34 -4.9 23.2
19:00 1021 30.15 850 25.1 10.7 51.3 34 -4.6 23.7
19:05 1021 30.15 850 25.1 10.9 51.6 33 -4.6 23.7
19:10 1021 30.15 850 25.1 11.1 52 33 -4.5 23.9
19:15 1021 30.15 850 25.1 10.7 51.3 34 -4.5 23.9
19:20 1021 30.15 850 25.1 10.4 50.7 35 -4.3 24.2
19:25 1021 30.15 850 25.1 10.7 51.2 34 -4.6 23.8
19:30 1021 30.15 850 25.1 10.7 51.2 34 -4.5 23.9
19:35 1021 30.15 850 25.1 10.6 51 35 -4.4 24.1
19:40 1021 30.15 850 25.1 10.7 51.3 35 -4.2 24.5
19:45 1021 30.15 850 25.1 10.7 51.2 35 -4 24.8
19:50 1021 30.15 850 25.1 10.6 51.1 36 -3.7 25.4
19:55 1021 30.15 850 25.1 10.5 50.8 37 -3.5 25.7
20:00 1021 30.15 850 25.1 10.2 50.3 40 -2.8 26.9
20:05 1021 30.15 850 25.1 10.1 50.2 40 -2.8 27
20:10 1021 30.15 850 25.1 10 50 39 -3.2 26.3
20:15 1021 30.15 850 25.1 9.8 49.6 40 -3 26.6
20:20 1021 30.15 850 25.1 9.7 49.4 41 -2.7 27.1
20:25 1021 30.15 850 25.1 9.8 49.7 41 -2.7 27.1
20:30 1021 30.15 850 25.1 9.8 49.6 42 -2.5 27.4
20:35 1021 30.15 850 25.1 9.7 49.4 45 -1.7 28.9
20:40 1021 30.15 850 25.1 9.5 49.2 45 -1.7 29
20:45 1021 30.15 850 25.1 9.3 48.8 46 -1.6 29.1
20:50 1021 30.15 850 25.1 9.1 48.5 47 -1.4 29.4
20:55 1021 30.15 850 25.1 9 48.2 50 -1 30.3
21:00 1021 30.15 850 25.1 8.8 47.8 51 -0.8 30.6
21:05 1021 30.15 850 25.1 8.3 47 59 0.7 33.3
21:10 1021 30.15 850 25.1 7.7 45.8 62 0.8 33.4
21:15 1021 30.15 850 25.1 7.3 45.1 64 0.9 33.5
21:20 1021 30.15 850 25.1 6.9 44.4 67 1.2 34.2
21:25 1021 30.15 850 25.1 6.4 43.5 71 1.5 34.6
21:30 1021 30.15 850 25.1 6 42.8 73 1.5 34.7
21:35 1021 30.15 850 25.1 5.6 42.1 75 1.5 34.8
21:40 1021 30.15 850 25.1 5.2 41.4 76 1.3 34.4
21:45 1021 30.15 850 25.1 5.1 41.2 76 1.2 34.2
21:50 1021 30.15 850 25.1 4.8 40.7 77 1.1 34
21:55 1021 30.15 850 25.1 4.5 40.1 76 0.7 33.3
22:00 1021 30.15 850 25.1 4.4 39.9 77 0.6 33.2
22:05 1021 30.15 850 25.1 4.2 39.6 77 0.5 32.9
22:10 1021 30.15 850 25.1 4 39.3 77 0.4 32.6
22:15 1021 30.15 850 25.1 3.9 39 77 0.3 32.5
22:20 1021 30.15 850 25.1 3.8 38.8 78 0.4 32.6
22:25 1021 30.15 850 25.1 3.7 38.7 78 0.2 32.4
22:30 1021 30.15 850 25.1 3.7 38.7 78 0.2 32.4
22:35 1021 30.15 850 25.1 3.7 38.6 79 0.3 32.5
22:40 1021 30.15 850 25.1 3.5 38.3 80 0.3 32.5
22:45 1021 30.15 850 25.1 3.4 38.1 79 0.2 32.4
22:50 1021 30.15 850 25.1 3.3 38 80 0.1 32.3
22:55 1021 30.15 850 25.1 3.3 37.9 80 0.1 32.3
23:00 1021 30.15 850 25.1 3.3 37.9 79 0 32
23:05 1021 30.15 850 25.1 3.3 38 78 -0.1 31.8
23:10 1021 30.15 850 25.1 3.4 38 79 0 32
23:15 1021 30.15 850 25.1 3.2 37.7 80 -0 32
23:20 1021 30.15 850 25.1 3.2 37.7 80 -0 31.9
23:25 1021 30.15 850 25.1 3.2 37.8 79 -0.1 31.8
23:30 1021 30.15 850 25.1 3.3 37.9 79 -0.1 31.8
23:35 1021 30.15 850 25.1 3.1 37.5 80 -0.1 31.8
23:40 1021 30.15 850 25.1 2.8 37.1 81 -0.1 31.8
23:45 1021 30.15 850 25.1 2.6 36.6 81 -0.3 31.5
23:50 1021 30.15 850 25.1 2.5 36.5 82 -0.3 31.5
23:55 1021 30.15 850 25.1 2.3 36.1 82 -0.4 31.2
24:00 1021 30.15 850 25.1 2.4 36.3 82 -0.4 31.2